sensor_id;sensor_type;location;lat;lon;timestamp;temperature;humidity
6930;DHT22;3504;52.616;13.238;2023-09-30T00:02:20;16.57;79.75
6930;DHT22;3504;52.616;13.238;2023-09-30T00:07:21;16.43;79.82
6930;DHT22;3504;52.616;13.238;2023-09-30T00:12:21;16.31;78.18
6930;DHT22;3504;52.616;13.238;2023-09-30T00:17:22;16.14;78.73
6930;DHT22;3504;52.616;13.238;2023-09-30T00:22:22;16.07;78.56
6930;DHT22;3504;52.616;13.238;2023-09-30T00:27:23;16.01;78.84
6930;DHT22;3504;52.616;13.238;2023-09-30T00:32:23;15.82;79.01
6930;DHT22;3504;52.616;13.238;2023-09-30T00:37:24;15.80;79.04
6930;DHT22;3504;52.616;13.238;2023-09-30T00:42:24;15.71;78.75
6930;DHT22;3504;52.616;13.238;2023-09-30T00:47:25;15.56;78.64
6930;DHT22;3504;52.616;13.238;2023-09-30T00:52:27;15.54;78.72
6930;DHT22;3504;52.616;13.238;2023-09-30T00:57:27;15.46;78.66
6930;DHT22;3504;52.616;13.238;2023-09-30T01:02:28;15.35;79.23
6930;DHT22;3504;52.616;13.238;2023-09-30T01:07:28;15.27;78.97
6930;DHT22;3504;52.616;13.238;2023-09-30T01:12:29;15.19;78.91
6930;DHT22;3504;52.616;13.238;2023-09-30T01:17:30;15.10;79.05
6930;DHT22;3504;52.616;13.238;2023-09-30T01:22:31;15.02;79.14
6930;DHT22;3504;52.616;13.238;2023-09-30T01:27:31;14.91;79.42
6930;DHT22;3504;52.616;13.238;2023-09-30T01:32:32;14.89;79.17
6930;DHT22;3504;52.616;13.238;2023-09-30T01:37:32;14.84;79.16
6930;DHT22;3504;52.616;13.238;2023-09-30T01:42:33;14.78;79.12
6930;DHT22;3504;52.616;13.238;2023-09-30T01:47:34;14.65;79.55
6930;DHT22;3504;52.616;13.238;2023-09-30T01:52:35;14.58;79.79
6930;DHT22;3504;52.616;13.238;2023-09-30T01:57:35;14.48;80.03
6930;DHT22;3504;52.616;13.238;2023-09-30T02:02:36;14.42;80.07
6930;DHT22;3504;52.616;13.238;2023-09-30T02:07:37;14.40;80.35
6930;DHT22;3504;52.616;13.238;2023-09-30T02:12:38;14.37;79.95
6930;DHT22;3504;52.616;13.238;2023-09-30T02:17:40;14.23;80.66
6930;DHT22;3504;52.616;13.238;2023-09-30T02:22:42;14.16;80.99
6930;DHT22;3504;52.616;13.238;2023-09-30T02:27:44;14.00;81.50
6930;DHT22;3504;52.616;13.238;2023-09-30T02:32:45;13.99;81.59
6930;DHT22;3504;52.616;13.238;2023-09-30T02:37:46;13.95;82.01
6930;DHT22;3504;52.616;13.238;2023-09-30T02:42:47;13.93;81.91
6930;DHT22;3504;52.616;13.238;2023-09-30T02:47:48;13.90;81.79
6930;DHT22;3504;52.616;13.238;2023-09-30T02:52:49;13.81;82.42
6930;DHT22;3504;52.616;13.238;2023-09-30T02:57:50;13.79;82.31
6930;DHT22;3504;52.616;13.238;2023-09-30T03:02:55;13.71;82.75
6930;DHT22;3504;52.616;13.238;2023-09-30T03:07:56;13.66;83.12
6930;DHT22;3504;52.616;13.238;2023-09-30T03:12:57;13.59;83.90
6930;DHT22;3504;52.616;13.238;2023-09-30T03:18:02;13.56;83.86
6930;DHT22;3504;52.616;13.238;2023-09-30T03:23:04;13.55;83.89
6930;DHT22;3504;52.616;13.238;2023-09-30T03:28:05;13.49;83.86
6930;DHT22;3504;52.616;13.238;2023-09-30T03:33:06;13.45;84.17
6930;DHT22;3504;52.616;13.238;2023-09-30T03:38:07;13.42;84.35
6930;DHT22;3504;52.616;13.238;2023-09-30T03:43:10;13.41;84.05
6930;DHT22;3504;52.616;13.238;2023-09-30T03:48:11;13.39;84.07
6930;DHT22;3504;52.616;13.238;2023-09-30T03:53:12;13.32;84.35
6930;DHT22;3504;52.616;13.238;2023-09-30T03:58:12;13.30;84.24
6930;DHT22;3504;52.616;13.238;2023-09-30T04:03:13;13.24;84.62
6930;DHT22;3504;52.616;13.238;2023-09-30T04:08:13;13.21;84.77
6930;DHT22;3504;52.616;13.238;2023-09-30T04:13:15;13.18;84.72
6930;DHT22;3504;52.616;13.238;2023-09-30T04:18:17;13.17;84.98
6930;DHT22;3504;52.616;13.238;2023-09-30T04:23:20;13.14;84.80
6930;DHT22;3504;52.616;13.238;2023-09-30T04:28:21;13.08;84.86
6930;DHT22;3504;52.616;13.238;2023-09-30T04:33:22;13.07;84.49
6930;DHT22;3504;52.616;13.238;2023-09-30T04:38:24;13.06;84.25
6930;DHT22;3504;52.616;13.238;2023-09-30T04:43:26;13.08;84.25
6930;DHT22;3504;52.616;13.238;2023-09-30T04:48:29;13.03;84.00
6930;DHT22;3504;52.616;13.238;2023-09-30T04:53:30;13.04;83.69
6930;DHT22;3504;52.616;13.238;2023-09-30T04:58:30;12.99;83.19
6930;DHT22;3504;52.616;13.238;2023-09-30T05:03:31;12.88;83.41
6930;DHT22;3504;52.616;13.238;2023-09-30T05:08:32;12.80;83.87
6930;DHT22;3504;52.616;13.238;2023-09-30T05:13:32;12.77;84.37
6930;DHT22;3504;52.616;13.238;2023-09-30T05:18:34;12.71;84.77
6930;DHT22;3504;52.616;13.238;2023-09-30T05:23:35;12.74;84.87
6930;DHT22;3504;52.616;13.238;2023-09-30T05:28:36;12.74;84.51
6930;DHT22;3504;52.616;13.238;2023-09-30T05:33:36;12.76;84.69
6930;DHT22;3504;52.616;13.238;2023-09-30T05:38:37;12.79;84.66
6930;DHT22;3504;52.616;13.238;2023-09-30T05:43:38;12.80;85.25
6930;DHT22;3504;52.616;13.238;2023-09-30T05:48:39;12.87;85.25
6930;DHT22;3504;52.616;13.238;2023-09-30T05:53:41;12.97;85.55
6930;DHT22;3504;52.616;13.238;2023-09-30T05:58:42;13.06;85.82
6930;DHT22;3504;52.616;13.238;2023-09-30T06:03:42;13.18;85.86
6930;DHT22;3504;52.616;13.238;2023-09-30T06:08:43;13.38;85.71
6930;DHT22;3504;52.616;13.238;2023-09-30T06:13:46;13.49;85.38
6930;DHT22;3504;52.616;13.238;2023-09-30T06:18:47;13.56;85.59
6930;DHT22;3504;52.616;13.238;2023-09-30T06:23:48;13.56;85.31
6930;DHT22;3504;52.616;13.238;2023-09-30T06:28:49;13.55;84.98
6930;DHT22;3504;52.616;13.238;2023-09-30T06:33:49;13.59;85.06
6930;DHT22;3504;52.616;13.238;2023-09-30T06:38:50;13.63;84.54
6930;DHT22;3504;52.616;13.238;2023-09-30T06:43:52;13.71;85.02
6930;DHT22;3504;52.616;13.238;2023-09-30T06:48:52;13.92;84.61
6930;DHT22;3504;52.616;13.238;2023-09-30T06:53:53;14.00;84.02
6930;DHT22;3504;52.616;13.238;2023-09-30T06:58:53;14.18;84.37
6930;DHT22;3504;52.616;13.238;2023-09-30T07:03:54;14.27;83.92
6930;DHT22;3504;52.616;13.238;2023-09-30T07:08:54;14.34;84.08
6930;DHT22;3504;52.616;13.238;2023-09-30T07:13:56;14.48;83.90
6930;DHT22;3504;52.616;13.238;2023-09-30T07:18:56;14.55;82.81
6930;DHT22;3504;52.616;13.238;2023-09-30T07:23:57;14.67;83.10
6930;DHT22;3504;52.616;13.238;2023-09-30T07:28:57;14.78;82.74
6930;DHT22;3504;52.616;13.238;2023-09-30T07:33:58;14.82;82.57
6930;DHT22;3504;52.616;13.238;2023-09-30T07:38:59;14.79;82.22
6930;DHT22;3504;52.616;13.238;2023-09-30T07:44:01;14.81;81.97
6930;DHT22;3504;52.616;13.238;2023-09-30T07:49:01;14.89;82.14
6930;DHT22;3504;52.616;13.238;2023-09-30T07:54:03;14.98;81.59
6930;DHT22;3504;52.616;13.238;2023-09-30T07:59:04;14.99;81.57
6930;DHT22;3504;52.616;13.238;2023-09-30T08:04:05;15.02;81.74
6930;DHT22;3504;52.616;13.238;2023-09-30T08:09:05;15.15;81.88
6930;DHT22;3504;52.616;13.238;2023-09-30T08:14:11;15.26;81.69
6930;DHT22;3504;52.616;13.238;2023-09-30T08:19:12;15.44;81.25
6930;DHT22;3504;52.616;13.238;2023-09-30T08:24:12;15.51;80.04
6930;DHT22;3504;52.616;13.238;2023-09-30T08:29:13;15.53;80.06
6930;DHT22;3504;52.616;13.238;2023-09-30T08:34:13;15.49;80.32
6930;DHT22;3504;52.616;13.238;2023-09-30T08:39:14;15.54;79.86
6930;DHT22;3504;52.616;13.238;2023-09-30T08:44:15;15.68;79.88
6930;DHT22;3504;52.616;13.238;2023-09-30T08:49:17;15.74;79.34
6930;DHT22;3504;52.616;13.238;2023-09-30T08:54:18;15.77;78.47
6930;DHT22;3504;52.616;13.238;2023-09-30T08:59:19;16.12;78.03
6930;DHT22;3504;52.616;13.238;2023-09-30T09:04:20;16.56;78.14
6930;DHT22;3504;52.616;13.238;2023-09-30T09:09:20;16.83;76.59
6930;DHT22;3504;52.616;13.238;2023-09-30T09:14:38;17.03;75.14
6930;DHT22;3504;52.616;13.238;2023-09-30T09:19:39;17.38;74.23
6930;DHT22;3504;52.616;13.238;2023-09-30T09:24:40;17.83;74.17
6930;DHT22;3504;52.616;13.238;2023-09-30T09:29:42;18.09;71.65
6930;DHT22;3504;52.616;13.238;2023-09-30T09:35:00;18.27;70.21
6930;DHT22;3504;52.616;13.238;2023-09-30T09:40:01;18.51;69.09
6930;DHT22;3504;52.616;13.238;2023-09-30T09:45:05;18.61;69.79
6930;DHT22;3504;52.616;13.238;2023-09-30T09:50:06;18.98;69.42
6930;DHT22;3504;52.616;13.238;2023-09-30T09:55:10;19.22;68.37
6930;DHT22;3504;52.616;13.238;2023-09-30T10:00:19;19.39;67.88
6930;DHT22;3504;52.616;13.238;2023-09-30T10:05:21;19.39;66.29
6930;DHT22;3504;52.616;13.238;2023-09-30T10:10:23;19.23;66.40
6930;DHT22;3504;52.616;13.238;2023-09-30T10:20:28;18.79;66.00
6930;DHT22;3504;52.616;13.238;2023-09-30T10:25:34;18.56;66.62
6930;DHT22;3504;52.616;13.238;2023-09-30T10:30:35;18.56;66.75
6930;DHT22;3504;52.616;13.238;2023-09-30T10:40:36;19.09;65.99
6930;DHT22;3504;52.616;13.238;2023-09-30T10:50:52;18.72;66.71
6930;DHT22;3504;52.616;13.238;2023-09-30T10:55:58;18.44;65.76
6930;DHT22;3504;52.616;13.238;2023-09-30T11:00:59;18.43;66.63
6930;DHT22;3504;52.616;13.238;2023-09-30T11:05:59;18.54;67.80
6930;DHT22;3504;52.616;13.238;2023-09-30T11:11:00;19.26;65.70
6930;DHT22;3504;52.616;13.238;2023-09-30T11:16:03;19.92;66.01
6930;DHT22;3504;52.616;13.238;2023-09-30T11:21:11;20.35;58.68
6930;DHT22;3504;52.616;13.238;2023-09-30T11:26:13;20.31;57.69
6930;DHT22;3504;52.616;13.238;2023-09-30T11:31:14;20.42;57.58
6930;DHT22;3504;52.616;13.238;2023-09-30T11:36:15;20.62;57.31
6930;DHT22;3504;52.616;13.238;2023-09-30T11:41:16;20.82;57.73
6930;DHT22;3504;52.616;13.238;2023-09-30T11:46:18;20.87;55.58
6930;DHT22;3504;52.616;13.238;2023-09-30T11:51:19;21.06;55.97
6930;DHT22;3504;52.616;13.238;2023-09-30T11:56:24;21.03;54.58
6930;DHT22;3504;52.616;13.238;2023-09-30T12:01:31;20.97;54.08
6930;DHT22;3504;52.616;13.238;2023-09-30T12:06:32;20.89;53.65
6930;DHT22;3504;52.616;13.238;2023-09-30T12:11:34;20.87;53.53
6930;DHT22;3504;52.616;13.238;2023-09-30T12:16:35;21.07;54.01
6930;DHT22;3504;52.616;13.238;2023-09-30T12:21:35;21.02;54.26
6930;DHT22;3504;52.616;13.238;2023-09-30T12:26:37;20.97;53.91
6930;DHT22;3504;52.616;13.238;2023-09-30T12:31:38;20.86;53.53
6930;DHT22;3504;52.616;13.238;2023-09-30T12:36:40;20.51;53.97
6930;DHT22;3504;52.616;13.238;2023-09-30T12:41:42;20.35;54.42
6930;DHT22;3504;52.616;13.238;2023-09-30T12:46:42;20.18;53.75
6930;DHT22;3504;52.616;13.238;2023-09-30T12:51:43;20.11;54.78
6930;DHT22;3504;52.616;13.238;2023-09-30T12:56:43;20.02;55.34
6930;DHT22;3504;52.616;13.238;2023-09-30T13:01:45;19.80;55.23
6930;DHT22;3504;52.616;13.238;2023-09-30T13:06:45;19.74;54.68
6930;DHT22;3504;52.616;13.238;2023-09-30T13:11:46;19.81;54.82
6930;DHT22;3504;52.616;13.238;2023-09-30T13:16:46;19.80;54.69
6930;DHT22;3504;52.616;13.238;2023-09-30T13:21:50;19.77;53.32
6930;DHT22;3504;52.616;13.238;2023-09-30T13:26:51;19.80;54.15
6930;DHT22;3504;52.616;13.238;2023-09-30T13:31:52;19.84;53.45
6930;DHT22;3504;52.616;13.238;2023-09-30T13:36:55;19.85;52.30
6930;DHT22;3504;52.616;13.238;2023-09-30T13:41:56;19.94;53.73
6930;DHT22;3504;52.616;13.238;2023-09-30T13:46:56;19.85;52.33
6930;DHT22;3504;52.616;13.238;2023-09-30T13:51:57;19.92;51.71
6930;DHT22;3504;52.616;13.238;2023-09-30T13:56:57;19.97;50.68
6930;DHT22;3504;52.616;13.238;2023-09-30T14:01:58;20.00;50.81
6930;DHT22;3504;52.616;13.238;2023-09-30T14:06:59;19.96;51.91
6930;DHT22;3504;52.616;13.238;2023-09-30T14:12:08;19.81;50.62
6930;DHT22;3504;52.616;13.238;2023-09-30T14:17:09;19.74;50.76
6930;DHT22;3504;52.616;13.238;2023-09-30T14:22:11;19.83;51.84
6930;DHT22;3504;52.616;13.238;2023-09-30T14:27:12;19.84;51.98
6930;DHT22;3504;52.616;13.238;2023-09-30T14:32:14;19.70;52.01
6930;DHT22;3504;52.616;13.238;2023-09-30T14:37:15;19.61;53.24
6930;DHT22;3504;52.616;13.238;2023-09-30T14:42:15;19.61;53.06
6930;DHT22;3504;52.616;13.238;2023-09-30T14:47:16;19.51;52.87
6930;DHT22;3504;52.616;13.238;2023-09-30T14:52:19;19.43;52.78
6930;DHT22;3504;52.616;13.238;2023-09-30T14:57:19;19.36;52.25
6930;DHT22;3504;52.616;13.238;2023-09-30T15:02:21;19.23;52.70
6930;DHT22;3504;52.616;13.238;2023-09-30T15:07:21;19.16;52.67
6930;DHT22;3504;52.616;13.238;2023-09-30T15:12:22;19.02;52.62
6930;DHT22;3504;52.616;13.238;2023-09-30T15:17:23;18.99;53.07
6930;DHT22;3504;52.616;13.238;2023-09-30T15:22:23;18.94;54.24
6930;DHT22;3504;52.616;13.238;2023-09-30T15:27:24;18.82;53.32
6930;DHT22;3504;52.616;13.238;2023-09-30T15:32:25;18.75;53.28
6930;DHT22;3504;52.616;13.238;2023-09-30T15:37:25;18.64;53.99
6930;DHT22;3504;52.616;13.238;2023-09-30T15:42:26;18.53;54.20
6930;DHT22;3504;52.616;13.238;2023-09-30T15:47:26;18.43;54.56
6930;DHT22;3504;52.616;13.238;2023-09-30T15:52:27;18.34;55.47
6930;DHT22;3504;52.616;13.238;2023-09-30T15:57:28;18.23;56.52
6930;DHT22;3504;52.616;13.238;2023-09-30T16:02:28;18.17;57.08
6930;DHT22;3504;52.616;13.238;2023-09-30T16:07:29;18.05;57.78
6930;DHT22;3504;52.616;13.238;2023-09-30T16:12:29;17.95;58.55
6930;DHT22;3504;52.616;13.238;2023-09-30T16:17:31;17.83;59.65
6930;DHT22;3504;52.616;13.238;2023-09-30T16:22:32;17.75;60.47
6930;DHT22;3504;52.616;13.238;2023-09-30T16:27:32;17.64;60.97
6930;DHT22;3504;52.616;13.238;2023-09-30T16:32:33;17.48;62.15
6930;DHT22;3504;52.616;13.238;2023-09-30T16:37:38;17.32;62.38
6930;DHT22;3504;52.616;13.238;2023-09-30T16:42:39;17.14;63.69
6930;DHT22;3504;52.616;13.238;2023-09-30T16:47:39;16.99;63.80
6930;DHT22;3504;52.616;13.238;2023-09-30T16:52:40;16.83;64.53
6930;DHT22;3504;52.616;13.238;2023-09-30T16:57:40;16.66;64.78
6930;DHT22;3504;52.616;13.238;2023-09-30T17:02:42;16.53;65.06
6930;DHT22;3504;52.616;13.238;2023-09-30T17:07:43;16.38;65.50
6930;DHT22;3504;52.616;13.238;2023-09-30T17:12:44;16.25;65.55
6930;DHT22;3504;52.616;13.238;2023-09-30T17:17:44;16.12;66.20
6930;DHT22;3504;52.616;13.238;2023-09-30T17:22:45;15.98;66.65
6930;DHT22;3504;52.616;13.238;2023-09-30T17:27:45;15.85;66.90
6930;DHT22;3504;52.616;13.238;2023-09-30T17:32:46;15.74;67.43
6930;DHT22;3504;52.616;13.238;2023-09-30T17:37:46;15.63;67.76
6930;DHT22;3504;52.616;13.238;2023-09-30T17:42:47;15.47;68.48
6930;DHT22;3504;52.616;13.238;2023-09-30T17:47:48;15.35;69.15
6930;DHT22;3504;52.616;13.238;2023-09-30T17:52:49;15.20;69.18
6930;DHT22;3504;52.616;13.238;2023-09-30T17:57:50;15.06;69.83
6930;DHT22;3504;52.616;13.238;2023-09-30T18:02:51;14.96;70.02
6930;DHT22;3504;52.616;13.238;2023-09-30T18:07:52;14.85;70.46
6930;DHT22;3504;52.616;13.238;2023-09-30T18:12:52;14.72;69.98
6930;DHT22;3504;52.616;13.238;2023-09-30T18:17:54;14.63;70.80
6930;DHT22;3504;52.616;13.238;2023-09-30T18:22:54;14.48;71.12
6930;DHT22;3504;52.616;13.238;2023-09-30T18:27:54;14.42;71.40
6930;DHT22;3504;52.616;13.238;2023-09-30T18:32:55;14.33;71.58
6930;DHT22;3504;52.616;13.238;2023-09-30T18:37:57;14.20;71.90
6930;DHT22;3504;52.616;13.238;2023-09-30T18:42:57;14.09;72.29
6930;DHT22;3504;52.616;13.238;2023-09-30T18:47:58;13.99;72.36
6930;DHT22;3504;52.616;13.238;2023-09-30T18:52:59;13.90;72.59
6930;DHT22;3504;52.616;13.238;2023-09-30T18:58:00;13.78;72.64
6930;DHT22;3504;52.616;13.238;2023-09-30T19:03:00;13.72;73.32
6930;DHT22;3504;52.616;13.238;2023-09-30T19:08:02;13.65;73.48
6930;DHT22;3504;52.616;13.238;2023-09-30T19:13:03;13.59;73.49
6930;DHT22;3504;52.616;13.238;2023-09-30T19:18:05;13.52;73.81
6930;DHT22;3504;52.616;13.238;2023-09-30T19:23:06;13.46;73.23
6930;DHT22;3504;52.616;13.238;2023-09-30T19:28:09;13.42;73.76
6930;DHT22;3504;52.616;13.238;2023-09-30T19:33:10;13.36;74.09
6930;DHT22;3504;52.616;13.238;2023-09-30T19:38:11;13.27;74.51
6930;DHT22;3504;52.616;13.238;2023-09-30T19:43:11;13.18;74.78
6930;DHT22;3504;52.616;13.238;2023-09-30T19:48:12;13.14;74.42
6930;DHT22;3504;52.616;13.238;2023-09-30T19:53:12;13.10;74.49
6930;DHT22;3504;52.616;13.238;2023-09-30T19:58:13;13.08;74.21
6930;DHT22;3504;52.616;13.238;2023-09-30T20:03:13;13.00;74.87
6930;DHT22;3504;52.616;13.238;2023-09-30T20:08:14;12.91;74.66
6930;DHT22;3504;52.616;13.238;2023-09-30T20:13:14;12.87;74.83
6930;DHT22;3504;52.616;13.238;2023-09-30T20:18:15;12.85;75.12
6930;DHT22;3504;52.616;13.238;2023-09-30T20:23:16;12.81;75.62
6930;DHT22;3504;52.616;13.238;2023-09-30T20:28:16;12.79;76.12
6930;DHT22;3504;52.616;13.238;2023-09-30T20:33:17;12.74;76.39
6930;DHT22;3504;52.616;13.238;2023-09-30T20:38:19;12.74;76.28
6930;DHT22;3504;52.616;13.238;2023-09-30T20:43:19;12.73;76.48
6930;DHT22;3504;52.616;13.238;2023-09-30T20:48:20;12.70;76.44
6930;DHT22;3504;52.616;13.238;2023-09-30T20:53:21;12.66;76.88
6930;DHT22;3504;52.616;13.238;2023-09-30T20:58:21;12.67;76.71
6930;DHT22;3504;52.616;13.238;2023-09-30T21:03:22;12.71;76.65
6930;DHT22;3504;52.616;13.238;2023-09-30T21:08:22;12.66;76.92
6930;DHT22;3504;52.616;13.238;2023-09-30T21:13:24;12.60;77.08
6930;DHT22;3504;52.616;13.238;2023-09-30T21:18:24;12.60;77.05
6930;DHT22;3504;52.616;13.238;2023-09-30T21:23:25;12.56;77.48
6930;DHT22;3504;52.616;13.238;2023-09-30T21:28:26;12.53;77.72
6930;DHT22;3504;52.616;13.238;2023-09-30T21:33:27;12.48;77.81
6930;DHT22;3504;52.616;13.238;2023-09-30T21:38:27;12.45;78.03
6930;DHT22;3504;52.616;13.238;2023-09-30T21:43:28;12.36;77.98
6930;DHT22;3504;52.616;13.238;2023-09-30T21:48:29;12.35;77.97
6930;DHT22;3504;52.616;13.238;2023-09-30T21:53:32;12.35;77.96
6930;DHT22;3504;52.616;13.238;2023-09-30T21:58:33;12.36;77.42
6930;DHT22;3504;52.616;13.238;2023-09-30T22:03:33;12.39;77.38
6930;DHT22;3504;52.616;13.238;2023-09-30T22:08:35;12.39;78.49
6930;DHT22;3504;52.616;13.238;2023-09-30T22:13:36;12.42;78.60
6930;DHT22;3504;52.616;13.238;2023-09-30T22:18:37;12.39;79.00
6930;DHT22;3504;52.616;13.238;2023-09-30T22:23:38;12.46;78.83
6930;DHT22;3504;52.616;13.238;2023-09-30T22:28:39;12.50;79.12
6930;DHT22;3504;52.616;13.238;2023-09-30T22:33:39;12.52;79.42
6930;DHT22;3504;52.616;13.238;2023-09-30T22:38:40;12.57;79.11
6930;DHT22;3504;52.616;13.238;2023-09-30T22:43:40;12.56;79.43
6930;DHT22;3504;52.616;13.238;2023-09-30T22:48:41;12.59;79.51
6930;DHT22;3504;52.616;13.238;2023-09-30T22:53:41;12.63;79.67
6930;DHT22;3504;52.616;13.238;2023-09-30T22:58:46;12.64;79.63
6930;DHT22;3504;52.616;13.238;2023-09-30T23:03:47;12.66;79.66
6930;DHT22;3504;52.616;13.238;2023-09-30T23:08:47;12.71;79.43
6930;DHT22;3504;52.616;13.238;2023-09-30T23:13:52;12.77;79.82
6930;DHT22;3504;52.616;13.238;2023-09-30T23:18:52;12.77;79.61
6930;DHT22;3504;52.616;13.238;2023-09-30T23:23:54;12.79;79.80
6930;DHT22;3504;52.616;13.238;2023-09-30T23:28:56;12.81;79.80
6930;DHT22;3504;52.616;13.238;2023-09-30T23:33:58;12.83;79.82
6930;DHT22;3504;52.616;13.238;2023-09-30T23:38:59;12.88;79.98
6930;DHT22;3504;52.616;13.238;2023-09-30T23:44:00;12.87;79.94
6930;DHT22;3504;52.616;13.238;2023-09-30T23:49:00;12.91;79.62
6930;DHT22;3504;52.616;13.238;2023-09-30T23:54:03;12.93;79.33
6930;DHT22;3504;52.616;13.238;2023-09-30T23:59:07;12.99;79.56
